Giddings, Texas
Current Conditions -  °F | °C
As of 8:15 AM on Friday 28 Nov 2014 (Local Time) from KGYB Reporting Station
Clear Clear  
Wind Chill:   Ceiling: Unl
Heat Index:   Visibility: 10mi
Dew Point:   Wind: 0mph
Humidity: 83%   Direction: NA
Pressure: 30.36"   Gusts: NA
Location:  30.18°N, 96.94°W
Report Text: KGYB 281415Z AUTO 00000KT 10SM CLR 08/06 A3036 RMK AO2 T00830056
Loading
Personal Weather Stations






























Interactive Weather Map New forecast layout! Learn more

10-Day Weather Forecast

Advertisements
Track Severe Weather on mobile